sensor_id;sensor_type;location;lat;lon;timestamp;pressure;altitude;pressure_sealevel;temperature;humidity
69772;BME280;57046;45.988;18.664;2023-03-01T00:01:08;101695.56;;;4.34;100.00
69772;BME280;57046;45.988;18.664;2023-03-01T00:03:34;101736.16;;;4.48;100.00
69772;BME280;57046;45.988;18.664;2023-03-01T00:06:00;101733.78;;;4.51;100.00
69772;BME280;57046;45.988;18.664;2023-03-01T00:08:26;101735.69;;;4.56;100.00
69772;BME280;57046;45.988;18.664;2023-03-01T00:11:09;101733.03;;;4.56;100.00
69772;BME280;57046;45.988;18.664;2023-03-01T00:13:35;101732.47;;;4.54;100.00
69772;BME280;57046;45.988;18.664;2023-03-01T00:16:08;101744.00;;;4.54;100.00
69772;BME280;57046;45.988;18.664;2023-03-01T00:18:33;101737.28;;;4.52;100.00
69772;BME280;57046;45.988;18.664;2023-03-01T00:20:59;101744.22;;;4.53;100.00
69772;BME280;57046;45.988;18.664;2023-03-01T00:23:25;101743.13;;;4.49;100.00
69772;BME280;57046;45.988;18.664;2023-03-01T00:25:50;101735.00;;;4.44;100.00
69772;BME280;57046;45.988;18.664;2023-03-01T00:28:16;101733.16;;;4.44;100.00
69772;BME280;57046;45.988;18.664;2023-03-01T00:30:42;101728.44;;;4.51;100.00
69772;BME280;57046;45.988;18.664;2023-03-01T00:33:07;101741.06;;;4.56;100.00
69772;BME280;57046;45.988;18.664;2023-03-01T00:35:33;101726.50;;;4.47;100.00
69772;BME280;57046;45.988;18.664;2023-03-01T00:37:59;101729.47;;;4.50;100.00
69772;BME280;57046;45.988;18.664;2023-03-01T00:40:25;101718.41;;;4.42;100.00
69772;BME280;57046;45.988;18.664;2023-03-01T00:42:51;101727.63;;;4.51;100.00
69772;BME280;57046;45.988;18.664;2023-03-01T00:45:16;101721.75;;;4.54;100.00
69772;BME280;57046;45.988;18.664;2023-03-01T00:47:42;101706.53;;;4.54;100.00
69772;BME280;57046;45.988;18.664;2023-03-01T00:50:08;101709.75;;;4.56;100.00
69772;BME280;57046;45.988;18.664;2023-03-01T00:52:34;101716.59;;;4.47;100.00
69772;BME280;57046;45.988;18.664;2023-03-01T00:54:59;101710.38;;;4.42;100.00
69772;BME280;57046;45.988;18.664;2023-03-01T00:57:24;101699.81;;;4.52;100.00
69772;BME280;57046;45.988;18.664;2023-03-01T00:59:50;101700.72;;;4.41;100.00
69772;BME280;57046;45.988;18.664;2023-03-01T01:02:15;101697.22;;;4.40;100.00
69772;BME280;57046;45.988;18.664;2023-03-01T01:04:40;101691.06;;;4.40;100.00
69772;BME280;57046;45.988;18.664;2023-03-01T01:07:06;101685.22;;;4.43;100.00
69772;BME280;57046;45.988;18.664;2023-03-01T01:09:31;101676.09;;;4.39;100.00
69772;BME280;57046;45.988;18.664;2023-03-01T01:11:57;101675.16;;;4.50;100.00
69772;BME280;57046;45.988;18.664;2023-03-01T01:14:22;101677.78;;;4.45;100.00
69772;BME280;57046;45.988;18.664;2023-03-01T01:16:47;101672.84;;;4.37;100.00
69772;BME280;57046;45.988;18.664;2023-03-01T01:19:13;101662.94;;;4.37;100.00
69772;BME280;57046;45.988;18.664;2023-03-01T01:21:39;101663.44;;;4.34;100.00
69772;BME280;57046;45.988;18.664;2023-03-01T01:24:05;101657.28;;;4.34;100.00
69772;BME280;57046;45.988;18.664;2023-03-01T01:26:32;101639.94;;;4.15;100.00
69772;BME280;57046;45.988;18.664;2023-03-01T01:28:59;101658.16;;;4.39;100.00
69772;BME280;57046;45.988;18.664;2023-03-01T01:31:25;101652.78;;;4.39;100.00
69772;BME280;57046;45.988;18.664;2023-03-01T01:33:54;101648.72;;;4.32;100.00
69772;BME280;57046;45.988;18.664;2023-03-01T01:36:20;101659.22;;;4.38;100.00
69772;BME280;57046;45.988;18.664;2023-03-01T01:38:46;101650.06;;;4.34;100.00
69772;BME280;57046;45.988;18.664;2023-03-01T01:41:12;101640.22;;;4.40;100.00
69772;BME280;57046;45.988;18.664;2023-03-01T01:46:32;101645.66;;;4.23;100.00
69772;BME280;57046;45.988;18.664;2023-03-01T01:49:31;101640.69;;;4.32;100.00
69772;BME280;57046;45.988;18.664;2023-03-01T01:52:22;101647.00;;;4.26;100.00
69772;BME280;57046;45.988;18.664;2023-03-01T01:55:09;101631.09;;;4.36;100.00
69772;BME280;57046;45.988;18.664;2023-03-01T01:57:45;101647.41;;;4.34;100.00
69772;BME280;57046;45.988;18.664;2023-03-01T02:00:16;101638.31;;;4.35;100.00
69772;BME280;57046;45.988;18.664;2023-03-01T02:02:43;101645.72;;;4.28;100.00
69772;BME280;57046;45.988;18.664;2023-03-01T02:05:15;101635.81;;;4.29;100.00
69772;BME280;57046;45.988;18.664;2023-03-01T02:07:42;101632.72;;;4.37;100.00
69772;BME280;57046;45.988;18.664;2023-03-01T02:10:08;101637.75;;;4.55;100.00
69772;BME280;57046;45.988;18.664;2023-03-01T02:12:34;101634.88;;;4.40;100.00
69772;BME280;57046;45.988;18.664;2023-03-01T02:15:00;101642.22;;;4.49;100.00
69772;BME280;57046;45.988;18.664;2023-03-01T02:17:26;101635.38;;;4.37;100.00
69772;BME280;57046;45.988;18.664;2023-03-01T02:20:07;101584.38;;;4.00;100.00
69772;BME280;57046;45.988;18.664;2023-03-01T02:22:37;101636.75;;;4.39;100.00
69772;BME280;57046;45.988;18.664;2023-03-01T02:27:47;101634.06;;;4.39;100.00
69772;BME280;57046;45.988;18.664;2023-03-01T02:30:15;101636.25;;;4.42;100.00
69772;BME280;57046;45.988;18.664;2023-03-01T02:32:41;101620.50;;;4.46;100.00
69772;BME280;57046;45.988;18.664;2023-03-01T02:35:09;101620.88;;;4.33;100.00
69772;BME280;57046;45.988;18.664;2023-03-01T02:37:36;101622.63;;;4.44;100.00
69772;BME280;57046;45.988;18.664;2023-03-01T02:40:05;101607.50;;;4.33;100.00
69772;BME280;57046;45.988;18.664;2023-03-01T02:42:37;101589.75;;;4.22;100.00
69772;BME280;57046;45.988;18.664;2023-03-01T02:45:05;101618.94;;;4.50;100.00
69772;BME280;57046;45.988;18.664;2023-03-01T02:47:31;101621.06;;;4.48;100.00
69772;BME280;57046;45.988;18.664;2023-03-01T02:49:56;101613.56;;;4.45;100.00
69772;BME280;57046;45.988;18.664;2023-03-01T02:52:37;101618.63;;;4.46;100.00
69772;BME280;57046;45.988;18.664;2023-03-01T02:55:11;101610.88;;;4.45;100.00
69772;BME280;57046;45.988;18.664;2023-03-01T02:57:38;101559.38;;;4.11;100.00
69772;BME280;57046;45.988;18.664;2023-03-01T03:00:08;101609.56;;;4.47;100.00
69772;BME280;57046;45.988;18.664;2023-03-01T03:02:36;101610.38;;;4.48;100.00
69772;BME280;57046;45.988;18.664;2023-03-01T03:05:10;101601.41;;;4.37;100.00
69772;BME280;57046;45.988;18.664;2023-03-01T03:07:37;101605.53;;;4.45;100.00
69772;BME280;57046;45.988;18.664;2023-03-01T03:10:04;101604.44;;;4.46;100.00
69772;BME280;57046;45.988;18.664;2023-03-01T03:12:31;101600.16;;;4.45;100.00
69772;BME280;57046;45.988;18.664;2023-03-01T03:14:56;101611.41;;;4.47;100.00
69772;BME280;57046;45.988;18.664;2023-03-01T03:17:22;101603.50;;;4.57;100.00
69772;BME280;57046;45.988;18.664;2023-03-01T03:19:47;101596.78;;;4.54;100.00
69772;BME280;57046;45.988;18.664;2023-03-01T03:22:13;101608.00;;;4.51;100.00
69772;BME280;57046;45.988;18.664;2023-03-01T03:24:38;101603.47;;;4.52;100.00
69772;BME280;57046;45.988;18.664;2023-03-01T03:27:05;101598.72;;;4.59;100.00
69772;BME280;57046;45.988;18.664;2023-03-01T03:29:30;101592.78;;;4.57;100.00
69772;BME280;57046;45.988;18.664;2023-03-01T03:31:56;101590.69;;;4.59;100.00
69772;BME280;57046;45.988;18.664;2023-03-01T03:34:21;101587.75;;;4.60;100.00
69772;BME280;57046;45.988;18.664;2023-03-01T03:36:47;101582.97;;;4.63;100.00
69772;BME280;57046;45.988;18.664;2023-03-01T03:39:12;101575.19;;;4.61;100.00
69772;BME280;57046;45.988;18.664;2023-03-01T03:41:38;101571.66;;;4.55;100.00
69772;BME280;57046;45.988;18.664;2023-03-01T03:44:03;101572.50;;;4.61;100.00
69772;BME280;57046;45.988;18.664;2023-03-01T03:46:28;101576.19;;;4.55;100.00
69772;BME280;57046;45.988;18.664;2023-03-01T03:48:54;101578.56;;;4.51;100.00
69772;BME280;57046;45.988;18.664;2023-03-01T03:51:19;101573.34;;;4.40;100.00
69772;BME280;57046;45.988;18.664;2023-03-01T03:53:45;101567.78;;;4.46;100.00
69772;BME280;57046;45.988;18.664;2023-03-01T03:56:11;101579.50;;;4.40;100.00
69772;BME280;57046;45.988;18.664;2023-03-01T03:58:37;101576.31;;;4.43;100.00
69772;BME280;57046;45.988;18.664;2023-03-01T04:01:03;101578.59;;;4.56;100.00
69772;BME280;57046;45.988;18.664;2023-03-01T04:03:30;101578.88;;;4.55;100.00
69772;BME280;57046;45.988;18.664;2023-03-01T04:05:59;101578.16;;;4.65;100.00
69772;BME280;57046;45.988;18.664;2023-03-01T04:08:26;101577.63;;;4.63;100.00
69772;BME280;57046;45.988;18.664;2023-03-01T04:10:56;101528.53;;;4.25;100.00
69772;BME280;57046;45.988;18.664;2023-03-01T04:13:22;101576.13;;;4.50;100.00
69772;BME280;57046;45.988;18.664;2023-03-01T04:15:49;101541.50;;;4.38;100.00
69772;BME280;57046;45.988;18.664;2023-03-01T04:18:16;101550.88;;;4.41;100.00
69772;BME280;57046;45.988;18.664;2023-03-01T04:20:42;101583.91;;;4.51;100.00
69772;BME280;57046;45.988;18.664;2023-03-01T04:23:12;101548.22;;;4.41;100.00
69772;BME280;57046;45.988;18.664;2023-03-01T04:25:53;101567.38;;;4.59;100.00
69772;BME280;57046;45.988;18.664;2023-03-01T04:28:23;101572.63;;;4.49;100.00
69772;BME280;57046;45.988;18.664;2023-03-01T04:30:50;101566.59;;;4.59;100.00
69772;BME280;57046;45.988;18.664;2023-03-01T04:33:16;101573.03;;;4.63;100.00
69772;BME280;57046;45.988;18.664;2023-03-01T04:35:42;101569.22;;;4.54;100.00
69772;BME280;57046;45.988;18.664;2023-03-01T04:38:08;101566.94;;;4.68;100.00
69772;BME280;57046;45.988;18.664;2023-03-01T04:40:34;101561.50;;;4.57;100.00
69772;BME280;57046;45.988;18.664;2023-03-01T04:43:00;101560.03;;;4.72;100.00
69772;BME280;57046;45.988;18.664;2023-03-01T04:45:26;101555.41;;;4.67;100.00
69772;BME280;57046;45.988;18.664;2023-03-01T04:47:51;101558.66;;;4.69;100.00
69772;BME280;57046;45.988;18.664;2023-03-01T04:50:18;101549.66;;;4.53;100.00
69772;BME280;57046;45.988;18.664;2023-03-01T04:52:44;101556.47;;;4.66;100.00
69772;BME280;57046;45.988;18.664;2023-03-01T04:55:10;101549.25;;;4.67;100.00
69772;BME280;57046;45.988;18.664;2023-03-01T04:57:35;101554.38;;;4.68;100.00
69772;BME280;57046;45.988;18.664;2023-03-01T05:00:01;101550.28;;;4.60;100.00
69772;BME280;57046;45.988;18.664;2023-03-01T05:02:27;101552.00;;;4.72;100.00
69772;BME280;57046;45.988;18.664;2023-03-01T05:04:52;101562.19;;;4.75;100.00
69772;BME280;57046;45.988;18.664;2023-03-01T05:07:17;101554.06;;;4.65;100.00
69772;BME280;57046;45.988;18.664;2023-03-01T05:09:43;101553.63;;;4.73;100.00
69772;BME280;57046;45.988;18.664;2023-03-01T05:12:08;101557.09;;;4.73;100.00
69772;BME280;57046;45.988;18.664;2023-03-01T05:14:33;101554.41;;;4.73;100.00
69772;BME280;57046;45.988;18.664;2023-03-01T05:16:59;101556.84;;;4.75;100.00
69772;BME280;57046;45.988;18.664;2023-03-01T05:19:24;101559.97;;;4.67;100.00
69772;BME280;57046;45.988;18.664;2023-03-01T05:21:49;101546.94;;;4.75;100.00
69772;BME280;57046;45.988;18.664;2023-03-01T05:24:15;101555.72;;;4.71;100.00
69772;BME280;57046;45.988;18.664;2023-03-01T05:26:40;101559.53;;;4.75;100.00
69772;BME280;57046;45.988;18.664;2023-03-01T05:29:05;101557.34;;;4.72;100.00
69772;BME280;57046;45.988;18.664;2023-03-01T05:31:31;101556.59;;;4.76;100.00
69772;BME280;57046;45.988;18.664;2023-03-01T05:33:56;101560.03;;;4.72;100.00
69772;BME280;57046;45.988;18.664;2023-03-01T05:36:21;101556.03;;;4.74;100.00
69772;BME280;57046;45.988;18.664;2023-03-01T05:38:47;101553.38;;;5.11;100.00
69772;BME280;57046;45.988;18.664;2023-03-01T05:41:15;101545.25;;;4.96;100.00
69772;BME280;57046;45.988;18.664;2023-03-01T05:43:42;101560.63;;;5.10;100.00
69772;BME280;57046;45.988;18.664;2023-03-01T05:46:07;101565.28;;;4.93;100.00
69772;BME280;57046;45.988;18.664;2023-03-01T05:48:32;101563.09;;;4.85;100.00
69772;BME280;57046;45.988;18.664;2023-03-01T05:50:59;101560.41;;;4.85;100.00
69772;BME280;57046;45.988;18.664;2023-03-01T05:53:25;101564.63;;;4.76;100.00
69772;BME280;57046;45.988;18.664;2023-03-01T05:55:50;101567.56;;;4.75;100.00
69772;BME280;57046;45.988;18.664;2023-03-01T05:58:18;101569.00;;;4.87;100.00
69772;BME280;57046;45.988;18.664;2023-03-01T06:00:45;101564.66;;;4.81;100.00
69772;BME280;57046;45.988;18.664;2023-03-01T06:03:12;101564.16;;;4.84;100.00
69772;BME280;57046;45.988;18.664;2023-03-01T06:05:38;101563.41;;;4.89;100.00
69772;BME280;57046;45.988;18.664;2023-03-01T06:08:03;101562.34;;;4.90;100.00
69772;BME280;57046;45.988;18.664;2023-03-01T06:10:29;101549.34;;;4.77;100.00
69772;BME280;57046;45.988;18.664;2023-03-01T06:12:54;101581.09;;;4.90;100.00
69772;BME280;57046;45.988;18.664;2023-03-01T06:15:21;101574.31;;;4.82;100.00
69772;BME280;57046;45.988;18.664;2023-03-01T06:17:46;101584.53;;;4.85;100.00
69772;BME280;57046;45.988;18.664;2023-03-01T06:20:15;101585.88;;;4.88;100.00
69772;BME280;57046;45.988;18.664;2023-03-01T06:22:41;101583.25;;;4.93;100.00
69772;BME280;57046;45.988;18.664;2023-03-01T06:25:08;101583.50;;;4.91;100.00
69772;BME280;57046;45.988;18.664;2023-03-01T06:27:33;101581.94;;;4.95;100.00
69772;BME280;57046;45.988;18.664;2023-03-01T06:29:59;101585.06;;;4.87;100.00
69772;BME280;57046;45.988;18.664;2023-03-01T06:32:24;101585.13;;;4.92;100.00
69772;BME280;57046;45.988;18.664;2023-03-01T06:34:50;101586.44;;;4.90;100.00
69772;BME280;57046;45.988;18.664;2023-03-01T06:37:15;101580.53;;;4.88;100.00
69772;BME280;57046;45.988;18.664;2023-03-01T06:39:41;101585.22;;;5.02;100.00
69772;BME280;57046;45.988;18.664;2023-03-01T06:42:07;101596.53;;;5.09;100.00
69772;BME280;57046;45.988;18.664;2023-03-01T06:44:33;101584.47;;;5.12;99.60
69772;BME280;57046;45.988;18.664;2023-03-01T06:46:58;101590.34;;;5.09;100.00
69772;BME280;57046;45.988;18.664;2023-03-01T06:49:24;101582.31;;;5.09;100.00
69772;BME280;57046;45.988;18.664;2023-03-01T06:51:49;101569.59;;;4.94;99.46
69772;BME280;57046;45.988;18.664;2023-03-01T06:54:15;101590.66;;;5.12;99.29
69772;BME280;57046;45.988;18.664;2023-03-01T06:56:40;101589.25;;;5.05;100.00
69772;BME280;57046;45.988;18.664;2023-03-01T06:59:05;101587.97;;;5.12;99.86
69772;BME280;57046;45.988;18.664;2023-03-01T07:01:31;101579.94;;;5.12;99.90
69772;BME280;57046;45.988;18.664;2023-03-01T07:03:57;101578.81;;;5.03;100.00
69772;BME280;57046;45.988;18.664;2023-03-01T07:06:23;101585.28;;;5.12;98.80
69772;BME280;57046;45.988;18.664;2023-03-01T07:08:48;101580.75;;;5.13;99.52
69772;BME280;57046;45.988;18.664;2023-03-01T07:11:14;101581.25;;;5.10;99.35
69772;BME280;57046;45.988;18.664;2023-03-01T07:13:39;101585.31;;;5.18;99.35
69772;BME280;57046;45.988;18.664;2023-03-01T07:16:05;101578.88;;;5.13;99.69
69772;BME280;57046;45.988;18.664;2023-03-01T07:18:31;101585.84;;;5.14;99.08
69772;BME280;57046;45.988;18.664;2023-03-01T07:20:56;101591.56;;;5.23;99.56
69772;BME280;57046;45.988;18.664;2023-03-01T07:23:21;101591.78;;;5.22;99.47
69772;BME280;57046;45.988;18.664;2023-03-01T07:25:54;101599.81;;;5.22;99.58
69772;BME280;57046;45.988;18.664;2023-03-01T07:28:20;101593.41;;;5.23;99.12
69772;BME280;57046;45.988;18.664;2023-03-01T07:30:45;101597.75;;;5.29;98.36
69772;BME280;57046;45.988;18.664;2023-03-01T07:33:10;101598.03;;;5.32;99.08
69772;BME280;57046;45.988;18.664;2023-03-01T07:35:36;101586.50;;;5.32;98.87
69772;BME280;57046;45.988;18.664;2023-03-01T07:38:01;101594.03;;;5.35;98.68
69772;BME280;57046;45.988;18.664;2023-03-01T07:40:26;101587.09;;;5.39;98.54
69772;BME280;57046;45.988;18.664;2023-03-01T07:42:56;101584.34;;;5.29;99.28
69772;BME280;57046;45.988;18.664;2023-03-01T07:45:21;101585.78;;;5.41;99.92
69772;BME280;57046;45.988;18.664;2023-03-01T07:47:47;101590.84;;;5.38;99.46
69772;BME280;57046;45.988;18.664;2023-03-01T07:50:12;101586.00;;;5.35;99.25
69772;BME280;57046;45.988;18.664;2023-03-01T07:52:37;101583.09;;;5.41;98.81
69772;BME280;57046;45.988;18.664;2023-03-01T07:55:03;101584.47;;;5.44;99.00
69772;BME280;57046;45.988;18.664;2023-03-01T07:57:28;101582.78;;;5.38;99.20
69772;BME280;57046;45.988;18.664;2023-03-01T07:59:53;101574.28;;;5.46;98.99
69772;BME280;57046;45.988;18.664;2023-03-01T08:02:19;101570.56;;;5.47;98.47
69772;BME280;57046;45.988;18.664;2023-03-01T08:04:44;101568.13;;;5.45;99.22
69772;BME280;57046;45.988;18.664;2023-03-01T08:07:10;101568.94;;;5.46;98.48
69772;BME280;57046;45.988;18.664;2023-03-01T08:09:35;101576.50;;;5.54;98.19
69772;BME280;57046;45.988;18.664;2023-03-01T08:12:00;101569.75;;;5.51;98.27
69772;BME280;57046;45.988;18.664;2023-03-01T08:14:26;101574.09;;;5.57;98.27
69772;BME280;57046;45.988;18.664;2023-03-01T08:16:51;101570.03;;;5.55;98.01
69772;BME280;57046;45.988;18.664;2023-03-01T08:19:17;101560.44;;;5.59;98.46
69772;BME280;57046;45.988;18.664;2023-03-01T08:21:42;101555.59;;;5.56;99.00
69772;BME280;57046;45.988;18.664;2023-03-01T08:24:08;101555.34;;;5.57;98.98
69772;BME280;57046;45.988;18.664;2023-03-01T08:26:33;101554.00;;;5.60;98.21
69772;BME280;57046;45.988;18.664;2023-03-01T08:29:00;101554.00;;;5.60;98.47
69772;BME280;57046;45.988;18.664;2023-03-01T08:31:35;101555.34;;;5.62;99.28
69772;BME280;57046;45.988;18.664;2023-03-01T08:34:03;101548.06;;;5.53;98.85
69772;BME280;57046;45.988;18.664;2023-03-01T08:36:40;101532.22;;;5.51;99.64
69772;BME280;57046;45.988;18.664;2023-03-01T08:39:08;101558.03;;;5.62;99.36
69772;BME280;57046;45.988;18.664;2023-03-01T08:41:34;101543.88;;;5.72;99.48
69772;BME280;57046;45.988;18.664;2023-03-01T08:43:59;101543.06;;;5.72;99.86
69772;BME280;57046;45.988;18.664;2023-03-01T08:46:36;101550.56;;;5.70;99.38
69772;BME280;57046;45.988;18.664;2023-03-01T08:49:05;101544.97;;;5.71;98.75
69772;BME280;57046;45.988;18.664;2023-03-01T08:51:31;101548.75;;;5.80;98.43
69772;BME280;57046;45.988;18.664;2023-03-01T08:53:56;101535.94;;;5.87;98.42
69772;BME280;57046;45.988;18.664;2023-03-01T08:56:21;101535.94;;;5.87;98.22
69772;BME280;57046;45.988;18.664;2023-03-01T08:58:48;101539.44;;;5.88;98.55
69772;BME280;57046;45.988;18.664;2023-03-01T09:01:18;101548.84;;;5.95;97.00
69772;BME280;57046;45.988;18.664;2023-03-01T09:03:44;101540.28;;;5.98;97.70
69772;BME280;57046;45.988;18.664;2023-03-01T09:06:10;101489.13;;;5.63;96.63
69772;BME280;57046;45.988;18.664;2023-03-01T09:08:37;101545.09;;;5.91;96.83
69772;BME280;57046;45.988;18.664;2023-03-01T09:11:04;101543.25;;;6.02;96.20
69772;BME280;57046;45.988;18.664;2023-03-01T09:13:31;101548.91;;;6.10;97.00
69772;BME280;57046;45.988;18.664;2023-03-01T09:15:57;101548.91;;;6.10;96.63
69772;BME280;57046;45.988;18.664;2023-03-01T09:18:22;101548.41;;;6.19;95.20
69772;BME280;57046;45.988;18.664;2023-03-01T09:20:48;101558.34;;;6.18;96.45
69772;BME280;57046;45.988;18.664;2023-03-01T09:23:13;101551.63;;;6.16;96.30
69772;BME280;57046;45.988;18.664;2023-03-01T09:25:38;101546.00;;;6.22;95.90
69772;BME280;57046;45.988;18.664;2023-03-01T09:28:04;101559.94;;;6.19;96.12
69772;BME280;57046;45.988;18.664;2023-03-01T09:30:29;101554.84;;;6.23;95.08
69772;BME280;57046;45.988;18.664;2023-03-01T09:32:56;101534.44;;;6.17;94.95
69772;BME280;57046;45.988;18.664;2023-03-01T09:35:22;101563.16;;;6.26;95.19
69772;BME280;57046;45.988;18.664;2023-03-01T09:37:47;101557.81;;;6.26;94.82
69772;BME280;57046;45.988;18.664;2023-03-01T09:40:20;101550.06;;;6.35;95.16
69772;BME280;57046;45.988;18.664;2023-03-01T09:43:03;101539.84;;;6.37;95.17
69772;BME280;57046;45.988;18.664;2023-03-01T09:45:38;101538.22;;;6.31;94.83
69772;BME280;57046;45.988;18.664;2023-03-01T09:48:12;101535.31;;;6.42;93.96
69772;BME280;57046;45.988;18.664;2023-03-01T09:50:41;101499.56;;;6.27;95.19
69772;BME280;57046;45.988;18.664;2023-03-01T09:53:15;101529.13;;;6.42;93.62
69772;BME280;57046;45.988;18.664;2023-03-01T09:56:00;101518.41;;;6.52;93.92
69772;BME280;57046;45.988;18.664;2023-03-01T10:01:30;101514.41;;;6.70;95.58
69772;BME280;57046;45.988;18.664;2023-03-01T10:04:13;101512.00;;;6.68;94.87
69772;BME280;57046;45.988;18.664;2023-03-01T10:06:55;101518.72;;;6.76;93.40
69772;BME280;57046;45.988;18.664;2023-03-01T10:09:23;101514.41;;;6.80;93.96
69772;BME280;57046;45.988;18.664;2023-03-01T10:11:52;101500.44;;;6.62;93.18
69772;BME280;57046;45.988;18.664;2023-03-01T10:17:34;101474.94;;;6.65;93.43
69772;BME280;57046;45.988;18.664;2023-03-01T10:20:28;101510.63;;;6.91;92.39
69772;BME280;57046;45.988;18.664;2023-03-01T10:22:55;101518.69;;;6.91;91.75
69772;BME280;57046;45.988;18.664;2023-03-01T10:30:57;101492.66;;;6.96;93.33
69772;BME280;57046;45.988;18.664;2023-03-01T10:33:26;101485.94;;;6.94;92.44
69772;BME280;57046;45.988;18.664;2023-03-01T10:35:52;101499.91;;;7.06;92.87
69772;BME280;57046;45.988;18.664;2023-03-01T10:38:19;101487.56;;;7.00;93.23
69772;BME280;57046;45.988;18.664;2023-03-01T10:43:23;101475.16;;;7.19;93.16
69772;BME280;57046;45.988;18.664;2023-03-01T10:45:48;101464.66;;;7.23;94.59
69772;BME280;57046;45.988;18.664;2023-03-01T10:48:18;101428.41;;;7.10;94.03
69772;BME280;57046;45.988;18.664;2023-03-01T10:50:48;101417.38;;;7.16;92.83
69772;BME280;57046;45.988;18.664;2023-03-01T10:58:22;101438.47;;;7.53;91.88
69772;BME280;57046;45.988;18.664;2023-03-01T11:03:21;101436.31;;;7.55;91.23
69772;BME280;57046;45.988;18.664;2023-03-01T11:08:38;101403.78;;;7.57;90.96
69772;BME280;57046;45.988;18.664;2023-03-01T11:13:58;101414.66;;;7.86;90.22
69772;BME280;57046;45.988;18.664;2023-03-01T11:16:28;101416.00;;;7.88;87.96
69772;BME280;57046;45.988;18.664;2023-03-01T11:18:59;101414.88;;;7.89;88.30
69772;BME280;57046;45.988;18.664;2023-03-01T11:21:28;101414.34;;;7.92;88.28
69772;BME280;57046;45.988;18.664;2023-03-01T11:23:59;101377.78;;;7.86;87.11
69772;BME280;57046;45.988;18.664;2023-03-01T11:26:27;101409.44;;;8.04;88.01
69772;BME280;57046;45.988;18.664;2023-03-01T11:28:55;101396.97;;;8.13;89.07
69772;BME280;57046;45.988;18.664;2023-03-01T11:31:24;101401.78;;;8.22;87.83
69772;BME280;57046;45.988;18.664;2023-03-01T11:36:31;101383.75;;;8.17;85.77
69772;BME280;57046;45.988;18.664;2023-03-01T11:39:05;101387.75;;;8.30;85.39
69772;BME280;57046;45.988;18.664;2023-03-01T11:41:39;101382.19;;;8.50;85.92
69772;BME280;57046;45.988;18.664;2023-03-01T11:46:49;101377.78;;;8.59;84.84
69772;BME280;57046;45.988;18.664;2023-03-01T11:49:41;101383.31;;;8.73;85.04
69772;BME280;57046;45.988;18.664;2023-03-01T12:00:53;101376.81;;;9.02;82.63
69772;BME280;57046;45.988;18.664;2023-03-01T12:06:16;101369.41;;;8.89;82.74
69772;BME280;57046;45.988;18.664;2023-03-01T12:09:06;101356.34;;;9.01;81.42
69772;BME280;57046;45.988;18.664;2023-03-01T12:22:54;101332.75;;;9.12;81.64
69772;BME280;57046;45.988;18.664;2023-03-01T12:25:39;101309.94;;;9.04;80.96
69772;BME280;57046;45.988;18.664;2023-03-01T12:28:45;101339.56;;;9.28;80.69
69772;BME280;57046;45.988;18.664;2023-03-01T12:50:51;101317.41;;;9.31;80.92
69772;BME280;57046;45.988;18.664;2023-03-01T12:53:24;101319.88;;;9.28;80.49
69772;BME280;57046;45.988;18.664;2023-03-01T12:55:51;101294.63;;;9.18;80.30
69772;BME280;57046;45.988;18.664;2023-03-01T13:01:26;101308.78;;;9.29;81.60
69772;BME280;57046;45.988;18.664;2023-03-01T13:04:17;101309.16;;;9.23;81.07
69772;BME280;57046;45.988;18.664;2023-03-01T13:06:58;101307.56;;;9.22;80.59
69772;BME280;57046;45.988;18.664;2023-03-01T13:12:42;101301.44;;;9.35;81.66
69772;BME280;57046;45.988;18.664;2023-03-01T13:18:00;101297.59;;;9.41;82.17
69772;BME280;57046;45.988;18.664;2023-03-01T13:23:09;101287.28;;;9.43;82.83
69772;BME280;57046;45.988;18.664;2023-03-01T13:26:12;101292.41;;;9.44;83.19
69772;BME280;57046;45.988;18.664;2023-03-01T13:34:02;101274.34;;;9.45;79.60
69772;BME280;57046;45.988;18.664;2023-03-01T13:38:59;101274.25;;;9.50;80.08
69772;BME280;57046;45.988;18.664;2023-03-01T13:49:46;101281.53;;;9.49;80.36
69772;BME280;57046;45.988;18.664;2023-03-01T13:52:45;101272.66;;;9.49;81.10
69772;BME280;57046;45.988;18.664;2023-03-01T13:57:42;101275.06;;;9.50;80.06
69772;BME280;57046;45.988;18.664;2023-03-01T14:00:36;101263.03;;;9.43;80.17
69772;BME280;57046;45.988;18.664;2023-03-01T14:05:33;101256.97;;;9.51;80.33
69772;BME280;57046;45.988;18.664;2023-03-01T14:07:59;101259.41;;;9.52;80.67
69772;BME280;57046;45.988;18.664;2023-03-01T14:16:24;101247.78;;;9.52;81.50
69772;BME280;57046;45.988;18.664;2023-03-01T14:19:23;101240.50;;;9.52;81.13
69772;BME280;57046;45.988;18.664;2023-03-01T14:24:47;101219.56;;;9.44;81.32
69772;BME280;57046;45.988;18.664;2023-03-01T14:27:13;101233.28;;;9.48;81.43
69772;BME280;57046;45.988;18.664;2023-03-01T14:29:40;101226.38;;;9.42;81.98
69772;BME280;57046;45.988;18.664;2023-03-01T14:32:19;101226.00;;;9.48;81.66
69772;BME280;57046;45.988;18.664;2023-03-01T14:34:47;101202.69;;;9.39;81.71
69772;BME280;57046;45.988;18.664;2023-03-01T14:37:30;101193.56;;;9.35;81.55
69772;BME280;57046;45.988;18.664;2023-03-01T14:39:58;101212.78;;;9.47;82.00
69772;BME280;57046;45.988;18.664;2023-03-01T14:42:28;101240.41;;;9.57;81.81
69772;BME280;57046;45.988;18.664;2023-03-01T14:44:56;101192.16;;;9.37;81.32
69772;BME280;57046;45.988;18.664;2023-03-01T14:49:56;101215.41;;;9.52;81.63
69772;BME280;57046;45.988;18.664;2023-03-01T14:52:28;101222.94;;;9.55;81.53
69772;BME280;57046;45.988;18.664;2023-03-01T14:54:56;101220.59;;;9.48;82.46
69772;BME280;57046;45.988;18.664;2023-03-01T14:57:25;101218.72;;;9.49;81.65